createdAt,value
2017-08-31T00:00:10.700Z,998.2
2017-08-31T00:01:13.092Z,998.2
2017-08-31T00:02:15.485Z,998.1
2017-08-31T00:03:17.876Z,998.2
2017-08-31T00:04:20.266Z,998.2
2017-08-31T00:05:22.656Z,998.2
2017-08-31T00:06:25.047Z,998.2
2017-08-31T00:07:27.439Z,998.3
2017-08-31T00:08:29.831Z,998.2
2017-08-31T00:09:32.587Z,998.2
2017-08-31T00:10:35.297Z,998.2
2017-08-31T00:11:37.686Z,998.2
2017-08-31T00:12:40.079Z,998.2
2017-08-31T00:13:42.472Z,998.2
2017-08-31T00:14:44.865Z,998.2
2017-08-31T00:15:47.258Z,998.2
2017-08-31T00:16:49.649Z,998.1
2017-08-31T00:17:52.041Z,998.2
2017-08-31T00:18:54.773Z,998.2
2017-08-31T00:19:57.165Z,998.2
2017-08-31T00:20:59.558Z,998.1
2017-08-31T00:22:01.952Z,998.2
2017-08-31T00:23:04.342Z,998.1
2017-08-31T00:24:06.762Z,998.1
2017-08-31T00:25:09.175Z,998.1
2017-08-31T00:26:11.583Z,998.1
2017-08-31T00:27:13.997Z,998.1
2017-08-31T00:28:16.408Z,998.2
2017-08-31T00:29:18.813Z,998.1
2017-08-31T00:30:21.226Z,998.1
2017-08-31T00:31:23.638Z,998.2
2017-08-31T00:32:26.045Z,998.2
2017-08-31T00:33:28.468Z,998.2
2017-08-31T00:34:30.878Z,998.1
2017-08-31T00:35:33.291Z,998.2
2017-08-31T00:36:35.708Z,998.1
2017-08-31T00:37:38.119Z,998.2
2017-08-31T00:38:40.531Z,998.1
2017-08-31T00:39:42.940Z,998.1
2017-08-31T00:40:45.352Z,998.1
2017-08-31T00:41:47.760Z,998.1
2017-08-31T00:42:50.185Z,998
2017-08-31T00:43:52.593Z,998
2017-08-31T00:44:55.002Z,998.1
2017-08-31T00:45:57.422Z,998
2017-08-31T00:46:59.833Z,998.1
2017-08-31T00:48:02.251Z,998.1
2017-08-31T00:49:04.667Z,998.2
2017-08-31T00:50:07.074Z,998.2
2017-08-31T00:51:09.493Z,998.2
2017-08-31T00:52:11.911Z,998.2
2017-08-31T00:53:14.662Z,998.2
2017-08-31T00:54:17.073Z,998.2
2017-08-31T00:55:19.483Z,998.2
2017-08-31T00:56:21.892Z,998.2
2017-08-31T00:57:24.307Z,998.2
2017-08-31T00:58:26.722Z,998.3
2017-08-31T00:59:29.125Z,998.3
2017-08-31T01:00:31.541Z,998.3
2017-08-31T01:01:33.949Z,998.4
2017-08-31T01:02:36.358Z,998.4
2017-08-31T01:03:38.764Z,998.4
2017-08-31T01:04:41.173Z,998.5
2017-08-31T01:05:43.585Z,998.4
2017-08-31T01:06:46.005Z,998.4
2017-08-31T01:07:48.419Z,998.4
2017-08-31T01:08:50.819Z,998.4
2017-08-31T01:09:53.230Z,998.4
2017-08-31T01:10:55.647Z,998.3
2017-08-31T01:11:58.060Z,998.4
2017-08-31T01:13:00.469Z,998.4
2017-08-31T01:14:02.884Z,998.4
2017-08-31T01:15:05.294Z,998.3
2017-08-31T01:16:07.714Z,998.3
2017-08-31T01:17:10.132Z,998.3
2017-08-31T01:18:12.874Z,998.3
2017-08-31T01:19:15.278Z,998.3
2017-08-31T01:20:17.691Z,998.3
2017-08-31T01:21:20.093Z,998.3
2017-08-31T01:22:22.508Z,998.3
2017-08-31T01:23:24.927Z,998.4
2017-08-31T01:24:27.331Z,998.4
2017-08-31T01:25:29.739Z,998.4
2017-08-31T01:26:32.149Z,998.5
2017-08-31T01:27:34.555Z,998.5
2017-08-31T01:28:36.973Z,998.5
2017-08-31T01:29:39.389Z,998.6
2017-08-31T01:30:41.785Z,998.6
2017-08-31T01:31:44.204Z,998.5
2017-08-31T01:32:46.615Z,998.6
2017-08-31T01:33:49.029Z,998.6
2017-08-31T01:34:51.449Z,998.6
2017-08-31T01:35:53.860Z,998.6
2017-08-31T01:36:56.276Z,998.6
2017-08-31T01:37:59.026Z,998.5
2017-08-31T01:39:01.434Z,998.6
2017-08-31T01:40:03.845Z,998.6
2017-08-31T01:41:06.587Z,998.6
2017-08-31T01:42:09.014Z,998.6
2017-08-31T01:43:11.416Z,998.7
2017-08-31T01:44:13.832Z,998.7
2017-08-31T01:45:16.240Z,998.7
2017-08-31T01:46:18.654Z,998.7
2017-08-31T01:47:21.072Z,998.7
2017-08-31T01:48:23.483Z,998.7
2017-08-31T01:49:25.891Z,998.8
2017-08-31T01:50:28.306Z,998.8
2017-08-31T01:51:30.722Z,998.8
2017-08-31T01:52:33.139Z,998.8
2017-08-31T01:53:35.550Z,998.8
2017-08-31T01:54:37.960Z,998.8
2017-08-31T01:55:40.725Z,998.8
2017-08-31T01:56:43.153Z,998.9
2017-08-31T01:57:45.563Z,998.9
2017-08-31T01:58:47.981Z,998.9
2017-08-31T01:59:50.390Z,999
2017-08-31T02:00:52.809Z,999
2017-08-31T02:01:55.217Z,999
2017-08-31T02:02:57.628Z,999.1
2017-08-31T02:04:00.031Z,999.1
2017-08-31T02:05:02.441Z,999
2017-08-31T02:06:04.849Z,999
2017-08-31T02:07:07.256Z,999
2017-08-31T02:08:09.670Z,999
2017-08-31T02:09:12.083Z,999
2017-08-31T02:10:14.497Z,999
2017-08-31T02:11:16.915Z,999
2017-08-31T02:12:19.330Z,999
2017-08-31T02:13:21.742Z,999
2017-08-31T02:14:24.524Z,999.1
2017-08-31T02:15:26.932Z,999.1
2017-08-31T02:16:29.346Z,999.1
2017-08-31T02:17:31.759Z,999.1
2017-08-31T02:18:34.170Z,999
2017-08-31T02:19:36.917Z,999
2017-08-31T02:20:39.341Z,999
2017-08-31T02:21:41.749Z,999
2017-08-31T02:22:44.158Z,999
2017-08-31T02:23:46.571Z,999
2017-08-31T02:24:48.977Z,999
2017-08-31T02:25:51.391Z,998.9
2017-08-31T02:26:53.806Z,998.9
2017-08-31T02:27:56.209Z,999
2017-08-31T02:28:58.624Z,999
2017-08-31T02:30:01.036Z,999
2017-08-31T02:31:03.446Z,998.9
2017-08-31T02:32:05.855Z,999
2017-08-31T02:33:08.265Z,999
2017-08-31T02:34:10.679Z,999
2017-08-31T02:35:13.431Z,999
2017-08-31T02:36:15.838Z,999
2017-08-31T02:37:18.247Z,998.9
2017-08-31T02:38:21.003Z,998.9
2017-08-31T02:39:23.423Z,998.9
2017-08-31T02:40:25.839Z,998.9
2017-08-31T02:41:28.247Z,998.9
2017-08-31T02:42:30.658Z,998.9
2017-08-31T02:43:33.412Z,998.9
2017-08-31T02:44:35.822Z,998.9
2017-08-31T02:45:38.234Z,999
2017-08-31T02:46:40.641Z,998.9
2017-08-31T02:47:43.044Z,998.9
2017-08-31T02:48:45.465Z,998.9
2017-08-31T02:49:47.874Z,998.9
2017-08-31T02:50:50.287Z,998.9
2017-08-31T02:51:52.706Z,998.9
2017-08-31T02:52:55.119Z,998.9
2017-08-31T02:53:57.525Z,999
2017-08-31T02:54:59.931Z,999
2017-08-31T02:56:02.353Z,999
2017-08-31T02:57:04.761Z,999
2017-08-31T02:58:07.172Z,999
2017-08-31T02:59:09.580Z,999
2017-08-31T03:00:11.993Z,999
2017-08-31T03:01:14.406Z,999
2017-08-31T03:02:16.825Z,999
2017-08-31T03:03:19.233Z,999
2017-08-31T03:04:21.673Z,999
2017-08-31T03:05:24.060Z,999
2017-08-31T03:06:26.479Z,999
2017-08-31T03:07:28.897Z,999
2017-08-31T03:08:31.651Z,999
2017-08-31T03:09:34.054Z,998.9
2017-08-31T03:10:36.469Z,998.9
2017-08-31T03:11:38.873Z,998.8
2017-08-31T03:12:41.298Z,998.8
2017-08-31T03:13:43.710Z,998.8
2017-08-31T03:14:46.115Z,998.8
2017-08-31T03:15:48.869Z,998.8
2017-08-31T03:16:51.281Z,998.9
2017-08-31T03:17:53.694Z,998.9
2017-08-31T03:18:56.093Z,998.9
2017-08-31T03:19:58.518Z,998.9
2017-08-31T03:21:00.931Z,999
2017-08-31T03:22:03.345Z,999
2017-08-31T03:23:05.766Z,999
2017-08-31T03:24:08.513Z,999.1
2017-08-31T03:25:10.922Z,999.1
2017-08-31T03:26:13.334Z,999.2
2017-08-31T03:27:15.740Z,999.2
2017-08-31T03:28:18.146Z,999.2
2017-08-31T03:29:20.565Z,999.3
2017-08-31T03:30:22.972Z,999.3
2017-08-31T03:31:25.386Z,999.3
2017-08-31T03:32:27.798Z,999.3
2017-08-31T03:33:30.208Z,999.3
2017-08-31T03:34:32.623Z,999.3
2017-08-31T03:35:35.035Z,999.3
2017-08-31T03:36:37.446Z,999.3
2017-08-31T03:37:39.858Z,999.3
2017-08-31T03:38:42.277Z,999.3
2017-08-31T03:39:44.683Z,999.2
2017-08-31T03:40:47.096Z,999.2
2017-08-31T03:41:49.505Z,999.3
2017-08-31T03:42:51.921Z,999.3
2017-08-31T03:43:54.331Z,999.3
2017-08-31T03:44:56.745Z,999.3
2017-08-31T03:45:59.141Z,999.3
2017-08-31T03:47:01.555Z,999.5
2017-08-31T03:48:03.972Z,999.5
2017-08-31T03:49:06.380Z,999.5
2017-08-31T03:50:08.790Z,999.5
2017-08-31T03:51:11.204Z,999.5
2017-08-31T03:52:13.620Z,999.4
2017-08-31T03:53:16.022Z,999.5
2017-08-31T03:54:18.458Z,999.4
2017-08-31T03:55:20.852Z,999.4
2017-08-31T03:56:23.267Z,999.5
2017-08-31T03:57:25.678Z,999.5
2017-08-31T03:58:28.086Z,999.5
2017-08-31T03:59:30.492Z,999.4
2017-08-31T04:00:32.917Z,999.4
2017-08-31T04:01:35.330Z,999.4
2017-08-31T04:02:37.734Z,999.5
2017-08-31T04:03:40.489Z,999.5
2017-08-31T04:04:42.895Z,999.5
2017-08-31T04:05:45.307Z,999.5
2017-08-31T04:06:47.716Z,999.5
2017-08-31T04:07:50.124Z,999.5
2017-08-31T04:08:52.534Z,999.5
2017-08-31T04:09:54.956Z,999.5
2017-08-31T04:10:57.362Z,999.5
2017-08-31T04:11:59.767Z,999.5
2017-08-31T04:13:02.182Z,999.5
2017-08-31T04:14:04.586Z,999.5
2017-08-31T04:15:07.001Z,999.5
2017-08-31T04:16:09.407Z,999.5
2017-08-31T04:17:11.818Z,999.5
2017-08-31T04:18:14.228Z,999.5
2017-08-31T04:19:16.646Z,999.5
2017-08-31T04:20:19.393Z,999.5
2017-08-31T04:21:21.804Z,999.5
2017-08-31T04:22:24.220Z,999.5
2017-08-31T04:23:26.637Z,999.5
2017-08-31T04:24:29.037Z,999.5
2017-08-31T04:25:31.458Z,999.5
2017-08-31T04:26:33.868Z,999.5
2017-08-31T04:27:36.287Z,999.6
2017-08-31T04:28:38.694Z,999.5
2017-08-31T04:29:41.099Z,999.6
2017-08-31T04:30:43.517Z,999.5
2017-08-31T04:31:45.935Z,999.5
2017-08-31T04:32:48.346Z,999.5
2017-08-31T04:33:50.752Z,999.5
2017-08-31T04:34:53.163Z,999.5
2017-08-31T04:35:55.580Z,999.6
2017-08-31T04:36:57.984Z,999.6
2017-08-31T04:38:00.409Z,999.5
2017-08-31T04:39:02.816Z,999.5
2017-08-31T04:40:05.230Z,999.5
2017-08-31T04:41:07.639Z,999.5
2017-08-31T04:42:10.051Z,999.5
2017-08-31T04:43:12.466Z,999.5
2017-08-31T04:44:14.883Z,999.5
2017-08-31T04:45:17.286Z,999.6
2017-08-31T04:46:20.044Z,999.5
2017-08-31T04:47:22.460Z,999.5
2017-08-31T04:48:24.876Z,999.6
2017-08-31T04:49:27.288Z,999.5
2017-08-31T04:50:29.706Z,999.6
2017-08-31T04:51:32.118Z,999.6
2017-08-31T04:52:34.528Z,999.6
2017-08-31T04:53:36.946Z,999.7
2017-08-31T04:54:39.360Z,999.6
2017-08-31T04:55:41.773Z,999.6
2017-08-31T04:56:44.522Z,999.6
2017-08-31T04:57:46.931Z,999.6
2017-08-31T04:58:49.340Z,999.6
2017-08-31T04:59:51.768Z,999.7
2017-08-31T05:00:54.256Z,999.6
2017-08-31T05:01:56.672Z,999.7
2017-08-31T05:02:59.089Z,999.7
2017-08-31T05:04:01.500Z,999.7
2017-08-31T05:05:03.941Z,999.6
2017-08-31T05:06:06.354Z,999.7
2017-08-31T05:07:09.462Z,999.7
2017-08-31T05:08:11.868Z,999.7
2017-08-31T05:09:14.295Z,999.7
2017-08-31T05:10:16.694Z,999.7
2017-08-31T05:11:19.111Z,999.8
2017-08-31T05:12:21.524Z,999.8
2017-08-31T05:13:23.937Z,999.8
2017-08-31T05:14:26.354Z,999.8
2017-08-31T05:15:28.774Z,999.8
2017-08-31T05:16:31.179Z,999.8
2017-08-31T05:17:33.597Z,999.8
2017-08-31T05:18:36.016Z,999.9
2017-08-31T05:19:38.427Z,999.9
2017-08-31T05:20:41.143Z,999.9
2017-08-31T05:21:43.554Z,999.9
2017-08-31T05:22:45.970Z,999.9
2017-08-31T05:23:48.386Z,999.9
2017-08-31T05:24:51.143Z,999.9
2017-08-31T05:25:53.547Z,999.9
2017-08-31T05:26:55.972Z,999.8
2017-08-31T05:27:58.738Z,999.9
2017-08-31T05:29:01.156Z,999.9
2017-08-31T05:30:03.577Z,999.9
2017-08-31T05:31:05.988Z,999.9
2017-08-31T05:32:08.400Z,999.9
2017-08-31T05:33:10.819Z,999.9
2017-08-31T05:34:13.238Z,999.8
2017-08-31T05:35:15.636Z,999.9
2017-08-31T05:36:18.046Z,999.9
2017-08-31T05:37:20.463Z,999.9
2017-08-31T05:38:22.877Z,999.8
2017-08-31T05:39:25.289Z,999.8
2017-08-31T05:40:27.695Z,999.8
2017-08-31T05:41:30.110Z,999.8
2017-08-31T05:42:32.533Z,999.8
2017-08-31T05:43:34.948Z,999.8
2017-08-31T05:44:38.043Z,999.9
2017-08-31T05:45:40.456Z,999.8
2017-08-31T05:46:42.866Z,999.9
2017-08-31T05:47:45.614Z,999.9
2017-08-31T05:48:48.060Z,999.8
2017-08-31T05:49:50.487Z,999.9
2017-08-31T05:50:52.894Z,999.9
2017-08-31T05:51:55.307Z,999.9
2017-08-31T05:52:57.712Z,999.8
2017-08-31T05:54:00.126Z,999.9
2017-08-31T05:55:02.901Z,999.9
2017-08-31T05:56:05.386Z,1000
2017-08-31T05:57:07.792Z,1000
2017-08-31T05:58:10.213Z,1000
2017-08-31T05:59:12.620Z,1000
2017-08-31T06:00:15.032Z,1000
2017-08-31T06:01:17.720Z,1000
2017-08-31T06:02:20.134Z,1000.1
2017-08-31T06:03:22.547Z,1000.2
2017-08-31T06:04:24.960Z,1000.2
2017-08-31T06:05:27.370Z,1000.1
2017-08-31T06:06:29.786Z,1000.1
2017-08-31T06:07:32.200Z,1000.1
2017-08-31T06:08:34.607Z,1000
2017-08-31T06:09:37.030Z,1000
2017-08-31T06:10:39.442Z,1000
2017-08-31T06:11:41.849Z,999.9
2017-08-31T06:12:44.262Z,999.9
2017-08-31T06:13:46.673Z,1000
2017-08-31T06:14:49.081Z,1000
2017-08-31T06:15:51.507Z,1000
2017-08-31T06:16:53.914Z,1000
2017-08-31T06:17:56.328Z,1000
2017-08-31T06:18:58.742Z,999.9
2017-08-31T06:20:01.496Z,999.9
2017-08-31T06:21:03.904Z,999.9
2017-08-31T06:22:06.314Z,999.9
2017-08-31T06:23:08.740Z,999.9
2017-08-31T06:24:11.149Z,999.9
2017-08-31T06:25:13.566Z,999.9
2017-08-31T06:26:15.976Z,999.9
2017-08-31T06:27:18.391Z,999.9
2017-08-31T06:28:20.802Z,999.9
2017-08-31T06:29:23.213Z,1000
2017-08-31T06:30:25.617Z,999.9
2017-08-31T06:31:28.028Z,999.9
2017-08-31T06:32:30.439Z,999.9
2017-08-31T06:33:32.853Z,999.9
2017-08-31T06:34:35.270Z,999.9
2017-08-31T06:35:37.681Z,999.9
2017-08-31T06:36:40.094Z,999.9
2017-08-31T06:37:42.513Z,999.9
2017-08-31T06:38:45.272Z,1000
2017-08-31T06:39:47.683Z,1000
2017-08-31T06:40:50.098Z,1000
2017-08-31T06:41:52.499Z,1000
2017-08-31T06:42:54.915Z,999.9
2017-08-31T06:43:57.329Z,1000
2017-08-31T06:44:59.743Z,1000
2017-08-31T06:46:02.154Z,1000
2017-08-31T06:47:04.578Z,1000.1
2017-08-31T06:48:06.990Z,1000
2017-08-31T06:49:09.394Z,1000.1
2017-08-31T06:50:11.810Z,1000
2017-08-31T06:51:14.211Z,1000.1
2017-08-31T06:52:16.629Z,1000
2017-08-31T06:53:19.046Z,1000.1
2017-08-31T06:54:21.452Z,1000
2017-08-31T06:55:23.864Z,1000.1
2017-08-31T06:56:26.284Z,1000.1
2017-08-31T06:57:28.696Z,1000.2
2017-08-31T06:58:31.453Z,1000.2
2017-08-31T06:59:33.852Z,1000.1
2017-08-31T07:00:36.609Z,1000.2
2017-08-31T07:01:39.027Z,1000.3
2017-08-31T07:02:41.433Z,1000.3
2017-08-31T07:03:43.839Z,1000.3
2017-08-31T07:04:46.253Z,1000.3
2017-08-31T07:05:48.672Z,1000.3
2017-08-31T07:06:51.080Z,1000.4
2017-08-31T07:07:53.495Z,1000.3
2017-08-31T07:08:55.906Z,1000.5
2017-08-31T07:09:58.324Z,1000.4
2017-08-31T07:11:00.735Z,1000.5
2017-08-31T07:12:03.147Z,1000.5
2017-08-31T07:13:05.556Z,1000.4
2017-08-31T07:14:07.971Z,1000.4
2017-08-31T07:15:10.389Z,1000.5
2017-08-31T07:16:12.795Z,1000.5
2017-08-31T07:17:15.212Z,1000.4
2017-08-31T07:18:17.631Z,1000.4
2017-08-31T07:19:20.041Z,1000.5
2017-08-31T07:20:22.447Z,1000.5
2017-08-31T07:21:25.194Z,1000.5
2017-08-31T07:22:27.614Z,1000.5
2017-08-31T07:23:30.021Z,1000.6
2017-08-31T07:24:32.436Z,1000.6
2017-08-31T07:25:34.847Z,1000.6
2017-08-31T07:26:37.259Z,1000.6
2017-08-31T07:27:39.669Z,1000.7
2017-08-31T07:28:42.087Z,1000.7
2017-08-31T07:29:44.502Z,1000.7
2017-08-31T07:30:47.256Z,1000.7
2017-08-31T07:31:49.665Z,1000.7
2017-08-31T07:32:52.081Z,1000.7
2017-08-31T07:33:54.499Z,1000.7
2017-08-31T07:34:57.240Z,1000.6
2017-08-31T07:35:59.656Z,1000.7
2017-08-31T07:37:02.074Z,1000.7
2017-08-31T07:38:04.483Z,1000.7
2017-08-31T07:39:06.911Z,1000.7
2017-08-31T07:40:09.324Z,1000.7
2017-08-31T07:41:11.728Z,1000.7
2017-08-31T07:42:14.518Z,1000.7
2017-08-31T07:43:16.926Z,1000.7
2017-08-31T07:44:19.334Z,1000.7
2017-08-31T07:45:21.744Z,1000.7
2017-08-31T07:46:24.502Z,1000.7
2017-08-31T07:47:26.920Z,1000.7
2017-08-31T07:48:29.321Z,1000.7
2017-08-31T07:49:31.735Z,1000.8
2017-08-31T07:50:34.488Z,1000.8
2017-08-31T07:51:36.907Z,1000.9
2017-08-31T07:52:39.320Z,1000.9
2017-08-31T07:53:41.724Z,1000.9
2017-08-31T07:54:44.139Z,1000.9
2017-08-31T07:55:46.562Z,1001
2017-08-31T07:56:48.978Z,1001
2017-08-31T07:57:51.388Z,1000.9
2017-08-31T07:58:53.796Z,1001
2017-08-31T07:59:56.203Z,1001
2017-08-31T08:00:58.623Z,1001
2017-08-31T08:02:01.036Z,1001
2017-08-31T08:03:03.442Z,1000.9
2017-08-31T08:04:05.857Z,1001.1
2017-08-31T08:05:08.322Z,1001.1
2017-08-31T08:06:10.739Z,1001.2
2017-08-31T08:07:13.154Z,1001.1
2017-08-31T08:08:15.561Z,1001.1
2017-08-31T08:09:17.972Z,1001.1
2017-08-31T08:10:20.395Z,1001.1
2017-08-31T08:11:22.806Z,1001.2
2017-08-31T08:12:25.552Z,1001.2
2017-08-31T08:13:27.966Z,1001.3
2017-08-31T08:14:30.373Z,1001.3
2017-08-31T08:15:32.784Z,1001.2
2017-08-31T08:16:35.552Z,1001.3
2017-08-31T08:17:37.952Z,1001.2
2017-08-31T08:18:40.362Z,1001.3
2017-08-31T08:19:42.773Z,1001.3
2017-08-31T08:20:45.176Z,1001.3
2017-08-31T08:21:47.599Z,1001.4
2017-08-31T08:22:50.007Z,1001.3
2017-08-31T08:24:37.292Z,1001.4
2017-08-31T08:25:39.758Z,1001.4
2017-08-31T08:26:42.229Z,1001.3
2017-08-31T08:27:44.717Z,1001.3
2017-08-31T08:28:47.178Z,1001.3
2017-08-31T08:29:49.654Z,1001.4
2017-08-31T08:30:52.475Z,1001.4
2017-08-31T08:31:54.938Z,1001.4
2017-08-31T08:32:57.412Z,1001.3
2017-08-31T08:33:59.878Z,1001.3
2017-08-31T08:35:02.352Z,1001.4
2017-08-31T08:36:04.834Z,1001.3
2017-08-31T08:37:07.307Z,1001.4
2017-08-31T08:38:09.776Z,1001.4
2017-08-31T08:39:12.253Z,1001.4
2017-08-31T08:40:14.724Z,1001.4
2017-08-31T08:41:17.189Z,1001.4
2017-08-31T08:42:19.666Z,1001.4
2017-08-31T08:43:22.127Z,1001.5
2017-08-31T08:44:24.597Z,1001.5
2017-08-31T08:45:27.070Z,1001.5
2017-08-31T08:46:29.544Z,1001.5
2017-08-31T08:47:32.012Z,1001.5
2017-08-31T08:48:34.482Z,1001.5
2017-08-31T08:49:36.962Z,1001.5
2017-08-31T08:50:39.436Z,1001.5
2017-08-31T08:51:41.902Z,1001.5
2017-08-31T08:52:44.724Z,1001.6
2017-08-31T08:53:47.196Z,1001.6
2017-08-31T08:54:49.674Z,1001.6
2017-08-31T08:55:52.148Z,1001.7
2017-08-31T08:56:54.617Z,1001.7
2017-08-31T08:57:57.093Z,1001.7
2017-08-31T08:58:59.913Z,1001.7
2017-08-31T09:00:02.411Z,1001.7
2017-08-31T09:01:05.225Z,1001.6
2017-08-31T09:02:07.700Z,1001.7
2017-08-31T09:03:10.160Z,1001.7
2017-08-31T09:04:12.976Z,1001.7
2017-08-31T09:05:15.455Z,1001.7
2017-08-31T09:06:17.924Z,1001.7
2017-08-31T09:07:20.401Z,1001.7
2017-08-31T09:08:22.868Z,1001.7
2017-08-31T09:09:25.341Z,1001.7
2017-08-31T09:10:27.820Z,1001.7
2017-08-31T09:11:30.291Z,1001.8
2017-08-31T09:12:32.759Z,1001.8
2017-08-31T09:13:35.234Z,1001.8
2017-08-31T09:14:37.714Z,1001.9
2017-08-31T09:15:40.537Z,1001.9
2017-08-31T09:16:43.018Z,1002
2017-08-31T09:17:45.487Z,1002
2017-08-31T09:18:47.968Z,1001.9
2017-08-31T09:19:50.436Z,1002
2017-08-31T09:20:52.908Z,1001.9
2017-08-31T09:21:55.732Z,1002
2017-08-31T09:22:58.207Z,1002.1
2017-08-31T09:24:00.679Z,1002.1
2017-08-31T09:25:03.151Z,1002.1
2017-08-31T09:26:05.617Z,1002.1
2017-08-31T09:27:08.103Z,1002.2
2017-08-31T09:28:10.573Z,1002.2
2017-08-31T09:29:13.048Z,1002.2
2017-08-31T09:30:15.529Z,1002.3
2017-08-31T09:31:18.001Z,1002.3
2017-08-31T09:32:20.468Z,1002.3
2017-08-31T09:33:22.938Z,1002.3
2017-08-31T09:34:25.752Z,1002.4
2017-08-31T09:35:28.219Z,1002.4
2017-08-31T09:36:30.705Z,1002.4
2017-08-31T09:37:33.169Z,1002.4
2017-08-31T09:38:35.638Z,1002.4
2017-08-31T09:39:38.107Z,1002.5
2017-08-31T09:40:40.578Z,1002.5
2017-08-31T09:41:43.055Z,1002.5
2017-08-31T09:42:45.872Z,1002.5
2017-08-31T09:43:48.339Z,1002.6
2017-08-31T09:44:50.822Z,1002.5
2017-08-31T09:45:53.296Z,1002.5
2017-08-31T09:46:55.771Z,1002.5
2017-08-31T09:47:58.237Z,1002.5
2017-08-31T09:49:00.710Z,1002.5
2017-08-31T09:50:03.543Z,1002.5
2017-08-31T09:51:06.016Z,1002.5
2017-08-31T09:52:08.492Z,1002.4
2017-08-31T09:53:10.967Z,1002.5
2017-08-31T09:54:13.436Z,1002.5
2017-08-31T09:55:15.908Z,1002.6
2017-08-31T09:56:18.379Z,1002.6
2017-08-31T09:57:20.852Z,1002.6
2017-08-31T09:58:23.327Z,1002.7
2017-08-31T09:59:25.802Z,1002.7
2017-08-31T10:00:28.274Z,1002.8
2017-08-31T10:01:30.750Z,1002.8
2017-08-31T10:02:33.230Z,1002.8
2017-08-31T10:03:35.699Z,1002.8
2017-08-31T10:04:38.512Z,1002.7
2017-08-31T10:05:40.990Z,1002.7
2017-08-31T10:06:43.464Z,1002.7
2017-08-31T10:07:45.935Z,1002.8
2017-08-31T10:08:48.414Z,1002.7
2017-08-31T10:09:50.878Z,1002.7
2017-08-31T10:10:53.353Z,1002.8
2017-08-31T10:11:55.840Z,1002.9
2017-08-31T10:12:58.304Z,1002.9
2017-08-31T10:14:00.773Z,1003
2017-08-31T10:15:03.247Z,1003
2017-08-31T10:16:05.723Z,1003.1
2017-08-31T10:17:08.183Z,1003.1
2017-08-31T10:18:10.661Z,1003.2
2017-08-31T10:19:13.130Z,1003.2
2017-08-31T10:20:15.591Z,1003.1
2017-08-31T10:21:18.066Z,1003.1
2017-08-31T10:22:20.537Z,1003.1
2017-08-31T10:23:23.011Z,1003.2
2017-08-31T10:24:25.491Z,1003.2
2017-08-31T10:25:27.964Z,1003.1
2017-08-31T10:26:30.439Z,1003.2
2017-08-31T10:27:33.263Z,1003.2
2017-08-31T10:28:35.734Z,1003.1
2017-08-31T10:29:38.198Z,1003.2
2017-08-31T10:30:40.670Z,1003.2
2017-08-31T10:31:43.137Z,1003.2
2017-08-31T10:32:45.603Z,1003.2
2017-08-31T10:33:48.416Z,1003.2
2017-08-31T10:34:50.885Z,1003.1
2017-08-31T10:35:53.354Z,1003.1
2017-08-31T10:36:55.831Z,1003.2
2017-08-31T10:37:58.304Z,1003.2
2017-08-31T10:39:00.779Z,1003.2
2017-08-31T10:40:03.256Z,1003.2
2017-08-31T10:41:06.100Z,1003.3
2017-08-31T10:42:08.566Z,1003.3
2017-08-31T10:43:11.051Z,1003.3
2017-08-31T10:44:13.529Z,1003.4
2017-08-31T10:45:16.009Z,1003.5
2017-08-31T10:46:18.474Z,1003.5
2017-08-31T10:47:21.298Z,1003.5
2017-08-31T10:48:23.769Z,1003.5
2017-08-31T10:49:26.244Z,1003.6
2017-08-31T10:50:28.723Z,1003.6
2017-08-31T10:51:31.194Z,1003.6
2017-08-31T10:52:33.668Z,1003.5
2017-08-31T10:53:36.150Z,1003.5
2017-08-31T10:54:38.613Z,1003.5
2017-08-31T10:55:41.083Z,1003.5
2017-08-31T10:56:43.550Z,1003.5
2017-08-31T10:57:46.015Z,1003.5
2017-08-31T10:58:48.491Z,1003.6
2017-08-31T10:59:50.957Z,1003.6
2017-08-31T11:00:53.434Z,1003.6
2017-08-31T11:01:55.903Z,1003.6
2017-08-31T11:02:58.727Z,1003.6
2017-08-31T11:04:01.197Z,1003.6
2017-08-31T11:05:03.674Z,1003.7
2017-08-31T11:06:06.146Z,1003.7
2017-08-31T11:07:08.629Z,1003.8
2017-08-31T11:08:11.100Z,1003.8
2017-08-31T11:09:13.567Z,1003.8
2017-08-31T11:10:16.032Z,1003.8
2017-08-31T11:11:18.503Z,1003.8
2017-08-31T11:12:20.974Z,1003.9
2017-08-31T11:13:23.448Z,1003.9
2017-08-31T11:14:25.925Z,1003.9
2017-08-31T11:15:28.400Z,1003.9
2017-08-31T11:16:30.862Z,1003.8
2017-08-31T11:17:33.333Z,1003.9
2017-08-31T11:18:35.800Z,1003.8
2017-08-31T11:19:38.614Z,1003.9
2017-08-31T11:20:41.091Z,1004
2017-08-31T11:21:43.561Z,1004
2017-08-31T11:22:46.026Z,1004.1
2017-08-31T11:23:48.505Z,1004.1
2017-08-31T11:24:50.975Z,1004.2
2017-08-31T11:25:53.446Z,1004.1
2017-08-31T11:26:55.917Z,1004.2
2017-08-31T11:27:58.556Z,1004.2
2017-08-31T11:29:00.995Z,1004.1
2017-08-31T11:30:04.106Z,1004.1
2017-08-31T11:31:07.059Z,1004.1
2017-08-31T11:32:10.160Z,1004.1
2017-08-31T11:33:13.142Z,1004.1
2017-08-31T11:34:15.489Z,1004.2
2017-08-31T11:35:17.978Z,1004.2
2017-08-31T11:36:20.460Z,1004.1
2017-08-31T11:37:22.950Z,1004.2
2017-08-31T11:38:25.336Z,1004.2
2017-08-31T11:39:27.815Z,1004.2
2017-08-31T11:40:30.277Z,1004.2
2017-08-31T11:41:32.746Z,1004.1
2017-08-31T11:42:35.227Z,1004.2
2017-08-31T11:43:37.698Z,1004.3
2017-08-31T11:44:40.172Z,1004.3
2017-08-31T11:45:42.979Z,1004.4
2017-08-31T11:46:45.797Z,1004.4
2017-08-31T11:47:48.277Z,1004.3
2017-08-31T11:48:50.738Z,1004.4
2017-08-31T11:49:53.207Z,1004.4
2017-08-31T11:50:55.680Z,1004.4
2017-08-31T11:51:58.148Z,1004.5
2017-08-31T11:53:00.627Z,1004.5
2017-08-31T11:54:03.440Z,1004.6
2017-08-31T11:55:05.917Z,1004.6
2017-08-31T11:56:08.395Z,1004.7
2017-08-31T11:57:10.868Z,1004.7
2017-08-31T11:58:13.330Z,1004.6
2017-08-31T11:59:15.801Z,1004.6
2017-08-31T12:00:18.611Z,1004.6
2017-08-31T12:01:21.088Z,1004.7
2017-08-31T12:02:23.561Z,1004.7
2017-08-31T12:03:26.030Z,1004.8
2017-08-31T12:04:28.509Z,1004.8
2017-08-31T12:05:30.986Z,1004.8
2017-08-31T12:06:33.458Z,1004.8
2017-08-31T12:07:35.931Z,1004.8
2017-08-31T12:08:38.414Z,1004.8
2017-08-31T12:09:40.880Z,1004.8
2017-08-31T12:10:43.451Z,1004.9
2017-08-31T12:11:45.927Z,1004.9
2017-08-31T12:12:48.401Z,1004.9
2017-08-31T12:13:50.868Z,1004.8
2017-08-31T12:14:53.335Z,1004.8
2017-08-31T12:15:55.811Z,1004.8
2017-08-31T12:16:58.275Z,1004.9
2017-08-31T12:18:00.750Z,1004.8
2017-08-31T12:19:03.575Z,1004.9
2017-08-31T12:20:06.045Z,1004.9
2017-08-31T12:21:08.518Z,1005
2017-08-31T12:22:10.994Z,1005
2017-08-31T12:23:13.452Z,1005.1
2017-08-31T12:24:15.926Z,1005.1
2017-08-31T12:25:18.406Z,1005.1
2017-08-31T12:26:20.868Z,1005.2
2017-08-31T12:27:23.341Z,1005.2
2017-08-31T12:28:25.809Z,1005.2
2017-08-31T12:29:28.638Z,1005.2
2017-08-31T12:30:31.120Z,1005.2
2017-08-31T12:31:33.587Z,1005.2
2017-08-31T12:32:36.062Z,1005.3
2017-08-31T12:33:38.533Z,1005.3
2017-08-31T12:34:41.005Z,1005.3
2017-08-31T12:35:43.475Z,1005.3
2017-08-31T12:36:46.286Z,1005.3
2017-08-31T12:37:48.748Z,1005.3
2017-08-31T12:38:51.213Z,1005.4
2017-08-31T12:39:53.681Z,1005.4
2017-08-31T12:40:56.150Z,1005.4
2017-08-31T12:41:58.613Z,1005.3
2017-08-31T12:43:01.079Z,1005.4
2017-08-31T12:44:03.911Z,1005.3
2017-08-31T12:45:06.379Z,1005.3
2017-08-31T12:46:08.946Z,1005.3
2017-08-31T12:47:12.130Z,1005.4
2017-08-31T12:48:14.605Z,1005.4
2017-08-31T12:49:17.067Z,1005.5
2017-08-31T12:50:19.553Z,1005.5
2017-08-31T12:51:22.018Z,1005.5
2017-08-31T12:52:24.481Z,1005.5
2017-08-31T12:53:26.947Z,1005.5
2017-08-31T12:54:29.414Z,1005.5
2017-08-31T12:55:31.878Z,1005.5
2017-08-31T12:56:34.710Z,1005.6
2017-08-31T12:57:37.181Z,1005.6
2017-08-31T12:58:39.989Z,1005.7
2017-08-31T12:59:42.465Z,1005.6
2017-08-31T13:00:44.936Z,1005.7
2017-08-31T13:01:47.416Z,1005.7
2017-08-31T13:02:49.887Z,1005.7
2017-08-31T13:03:52.347Z,1005.7
2017-08-31T13:04:54.820Z,1005.7
2017-08-31T13:05:57.295Z,1005.6
2017-08-31T13:07:00.105Z,1005.6
2017-08-31T13:08:02.573Z,1005.6
2017-08-31T13:09:05.042Z,1005.7
2017-08-31T13:10:07.509Z,1005.8
2017-08-31T13:11:09.988Z,1005.7
2017-08-31T13:12:12.450Z,1005.8
2017-08-31T13:13:14.919Z,1005.8
2017-08-31T13:14:17.380Z,1005.8
2017-08-31T13:15:19.855Z,1005.8
2017-08-31T13:16:22.325Z,1005.9
2017-08-31T13:17:24.797Z,1005.9